Golts, Maryland
Current Conditions -  °F | °C
As of 1:58 AM on Wednesday 22 Oct 2014 (Local Time) from KDOV Reporting Station
Light Rain Light Rain  
Wind Chill: 13°   Ceiling: Unl
Heat Index: 13°   Visibility: 7mi
Dew Point: 13°   Wind: 8mph
Humidity: 100%   Direction: 310°NW
Pressure: 29.81"   Gusts: NA
Location:  39.3314°N, 75.8397°W
Report Text: KDOV 220558Z AUTO 31007KT 7SM -RA FEW049 SCT060 13/13 A2981 RMK AO2 SLP098 P0007 60010 T01310131 10140 20124 58009 $
Loading
Personal Weather Stations






























Interactive Weather Map
Tropical Storm Tracking
New forecast layout! Learn more

10-Day Weather Forecast

Advertisements
Track Severe Weather on mobile